sensor_id;sensor_type;location;lat;lon;timestamp;P1;durP1;ratioP1;P2;durP2;ratioP2
3995;SDS011;2012;49.794;9.722;2023-11-19T00:01:58;3.77;;;3.40;;
3995;SDS011;2012;49.794;9.722;2023-11-19T00:04:25;4.70;;;2.30;;
3995;SDS011;2012;49.794;9.722;2023-11-19T00:06:52;3.20;;;2.57;;
3995;SDS011;2012;49.794;9.722;2023-11-19T00:09:18;3.93;;;2.20;;
3995;SDS011;2012;49.794;9.722;2023-11-19T00:11:45;3.53;;;2.00;;
3995;SDS011;2012;49.794;9.722;2023-11-19T00:14:16;3.63;;;2.40;;
3995;SDS011;2012;49.794;9.722;2023-11-19T00:16:43;2.73;;;2.53;;
3995;SDS011;2012;49.794;9.722;2023-11-19T00:19:10;2.40;;;2.10;;
3995;SDS011;2012;49.794;9.722;2023-11-19T00:21:38;7.03;;;3.00;;
3995;SDS011;2012;49.794;9.722;2023-11-19T00:24:05;2.67;;;2.47;;
3995;SDS011;2012;49.794;9.722;2023-11-19T00:26:32;2.50;;;2.30;;
3995;SDS011;2012;49.794;9.722;2023-11-19T00:29:00;2.50;;;2.30;;
3995;SDS011;2012;49.794;9.722;2023-11-19T00:31:26;2.73;;;2.17;;
3995;SDS011;2012;49.794;9.722;2023-11-19T00:33:54;2.23;;;2.03;;
3995;SDS011;2012;49.794;9.722;2023-11-19T00:36:21;2.60;;;2.40;;
3995;SDS011;2012;49.794;9.722;2023-11-19T00:38:50;7.53;;;3.30;;
3995;SDS011;2012;49.794;9.722;2023-11-19T00:41:19;3.43;;;3.13;;
3995;SDS011;2012;49.794;9.722;2023-11-19T00:43:46;3.33;;;3.00;;
3995;SDS011;2012;49.794;9.722;2023-11-19T00:46:13;4.73;;;2.90;;
3995;SDS011;2012;49.794;9.722;2023-11-19T00:48:40;7.10;;;3.03;;
3995;SDS011;2012;49.794;9.722;2023-11-19T00:51:07;4.07;;;2.73;;
3995;SDS011;2012;49.794;9.722;2023-11-19T00:53:34;3.40;;;2.80;;
3995;SDS011;2012;49.794;9.722;2023-11-19T00:56:01;3.33;;;3.03;;
3995;SDS011;2012;49.794;9.722;2023-11-19T00:58:27;3.03;;;2.83;;
3995;SDS011;2012;49.794;9.722;2023-11-19T01:00:55;4.93;;;3.47;;
3995;SDS011;2012;49.794;9.722;2023-11-19T01:03:23;8.90;;;3.87;;
3995;SDS011;2012;49.794;9.722;2023-11-19T01:05:50;3.93;;;3.63;;
3995;SDS011;2012;49.794;9.722;2023-11-19T01:08:20;6.50;;;3.93;;
3995;SDS011;2012;49.794;9.722;2023-11-19T01:10:46;4.43;;;3.80;;
3995;SDS011;2012;49.794;9.722;2023-11-19T01:13:14;4.20;;;3.80;;
3995;SDS011;2012;49.794;9.722;2023-11-19T01:15:40;3.23;;;3.03;;
3995;SDS011;2012;49.794;9.722;2023-11-19T01:18:07;4.80;;;4.00;;
3995;SDS011;2012;49.794;9.722;2023-11-19T01:20:36;4.93;;;3.40;;
3995;SDS011;2012;49.794;9.722;2023-11-19T01:23:03;6.53;;;3.50;;
3995;SDS011;2012;49.794;9.722;2023-11-19T01:25:30;3.80;;;3.50;;
3995;SDS011;2012;49.794;9.722;2023-11-19T01:27:57;4.70;;;3.00;;
3995;SDS011;2012;49.794;9.722;2023-11-19T01:30:24;3.70;;;3.40;;
3995;SDS011;2012;49.794;9.722;2023-11-19T01:32:52;6.10;;;3.83;;
3995;SDS011;2012;49.794;9.722;2023-11-19T01:35:19;4.43;;;3.37;;
3995;SDS011;2012;49.794;9.722;2023-11-19T01:37:46;3.57;;;3.27;;
3995;SDS011;2012;49.794;9.722;2023-11-19T01:40:13;6.90;;;4.33;;
3995;SDS011;2012;49.794;9.722;2023-11-19T01:42:40;5.13;;;4.57;;
3995;SDS011;2012;49.794;9.722;2023-11-19T01:45:07;9.47;;;6.97;;
3995;SDS011;2012;49.794;9.722;2023-11-19T01:47:35;9.20;;;6.20;;
3995;SDS011;2012;49.794;9.722;2023-11-19T01:50:03;13.50;;;6.60;;
3995;SDS011;2012;49.794;9.722;2023-11-19T01:52:34;9.90;;;7.17;;
3995;SDS011;2012;49.794;9.722;2023-11-19T01:55:05;11.57;;;8.27;;
3995;SDS011;2012;49.794;9.722;2023-11-19T01:57:35;7.90;;;6.00;;
3995;SDS011;2012;49.794;9.722;2023-11-19T02:00:05;4.60;;;3.70;;
3995;SDS011;2012;49.794;9.722;2023-11-19T02:02:42;5.57;;;3.20;;
3995;SDS011;2012;49.794;9.722;2023-11-19T02:05:11;5.90;;;4.80;;
3995;SDS011;2012;49.794;9.722;2023-11-19T02:07:39;10.20;;;6.67;;
3995;SDS011;2012;49.794;9.722;2023-11-19T02:10:06;8.30;;;4.63;;
3995;SDS011;2012;49.794;9.722;2023-11-19T02:12:40;5.10;;;4.37;;
3995;SDS011;2012;49.794;9.722;2023-11-19T02:15:11;3.93;;;3.47;;
3995;SDS011;2012;49.794;9.722;2023-11-19T02:17:38;3.40;;;3.10;;
3995;SDS011;2012;49.794;9.722;2023-11-19T02:20:05;3.67;;;1.60;;
3995;SDS011;2012;49.794;9.722;2023-11-19T02:22:35;3.13;;;1.67;;
3995;SDS011;2012;49.794;9.722;2023-11-19T02:25:10;3.70;;;2.30;;
3995;SDS011;2012;49.794;9.722;2023-11-19T02:27:48;2.30;;;1.30;;
3995;SDS011;2012;49.794;9.722;2023-11-19T02:30:18;1.37;;;0.80;;
3995;SDS011;2012;49.794;9.722;2023-11-19T02:32:45;1.10;;;1.00;;
3995;SDS011;2012;49.794;9.722;2023-11-19T02:35:12;2.60;;;1.20;;
3995;SDS011;2012;49.794;9.722;2023-11-19T02:37:39;1.27;;;1.00;;
3995;SDS011;2012;49.794;9.722;2023-11-19T02:40:07;1.20;;;1.10;;
3995;SDS011;2012;49.794;9.722;2023-11-19T02:42:36;1.00;;;0.90;;
3995;SDS011;2012;49.794;9.722;2023-11-19T02:45:02;0.70;;;0.70;;
3995;SDS011;2012;49.794;9.722;2023-11-19T02:47:33;0.70;;;0.70;;
3995;SDS011;2012;49.794;9.722;2023-11-19T02:50:01;1.80;;;0.87;;
3995;SDS011;2012;49.794;9.722;2023-11-19T02:52:28;0.70;;;0.70;;
3995;SDS011;2012;49.794;9.722;2023-11-19T02:54:55;0.80;;;0.80;;
3995;SDS011;2012;49.794;9.722;2023-11-19T02:57:22;0.90;;;0.90;;
3995;SDS011;2012;49.794;9.722;2023-11-19T02:59:49;0.70;;;0.70;;
3995;SDS011;2012;49.794;9.722;2023-11-19T03:02:16;1.33;;;0.90;;
3995;SDS011;2012;49.794;9.722;2023-11-19T03:04:44;1.63;;;1.20;;
3995;SDS011;2012;49.794;9.722;2023-11-19T03:07:12;3.00;;;0.80;;
3995;SDS011;2012;49.794;9.722;2023-11-19T03:09:39;0.70;;;0.70;;
3995;SDS011;2012;49.794;9.722;2023-11-19T03:12:07;0.60;;;0.60;;
3995;SDS011;2012;49.794;9.722;2023-11-19T03:14:34;5.03;;;0.90;;
3995;SDS011;2012;49.794;9.722;2023-11-19T03:17:01;0.80;;;0.70;;
3995;SDS011;2012;49.794;9.722;2023-11-19T03:19:30;0.80;;;0.80;;
3995;SDS011;2012;49.794;9.722;2023-11-19T03:21:56;0.80;;;0.80;;
3995;SDS011;2012;49.794;9.722;2023-11-19T03:24:23;3.37;;;0.70;;
3995;SDS011;2012;49.794;9.722;2023-11-19T03:26:51;0.70;;;0.67;;
3995;SDS011;2012;49.794;9.722;2023-11-19T03:29:18;1.00;;;0.70;;
3995;SDS011;2012;49.794;9.722;2023-11-19T03:31:45;0.77;;;0.63;;
3995;SDS011;2012;49.794;9.722;2023-11-19T03:34:11;2.60;;;0.60;;
3995;SDS011;2012;49.794;9.722;2023-11-19T03:36:38;1.77;;;0.73;;
3995;SDS011;2012;49.794;9.722;2023-11-19T03:39:06;0.60;;;0.60;;
3995;SDS011;2012;49.794;9.722;2023-11-19T03:41:33;0.77;;;0.77;;
3995;SDS011;2012;49.794;9.722;2023-11-19T03:44:03;0.60;;;0.60;;
3995;SDS011;2012;49.794;9.722;2023-11-19T03:46:30;0.93;;;0.60;;
3995;SDS011;2012;49.794;9.722;2023-11-19T03:48:57;0.50;;;0.50;;
3995;SDS011;2012;49.794;9.722;2023-11-19T03:51:23;0.60;;;0.60;;
3995;SDS011;2012;49.794;9.722;2023-11-19T03:53:51;0.90;;;0.50;;
3995;SDS011;2012;49.794;9.722;2023-11-19T03:56:17;0.83;;;0.63;;
3995;SDS011;2012;49.794;9.722;2023-11-19T03:58:44;0.50;;;0.50;;
3995;SDS011;2012;49.794;9.722;2023-11-19T04:01:12;1.70;;;0.57;;
3995;SDS011;2012;49.794;9.722;2023-11-19T04:03:42;4.20;;;0.50;;
3995;SDS011;2012;49.794;9.722;2023-11-19T04:06:12;0.60;;;0.50;;
3995;SDS011;2012;49.794;9.722;2023-11-19T04:08:39;0.70;;;0.50;;
3995;SDS011;2012;49.794;9.722;2023-11-19T04:11:06;0.50;;;0.50;;
3995;SDS011;2012;49.794;9.722;2023-11-19T04:13:33;0.50;;;0.50;;
3995;SDS011;2012;49.794;9.722;2023-11-19T04:16:00;3.27;;;0.60;;
3995;SDS011;2012;49.794;9.722;2023-11-19T04:18:27;2.00;;;0.50;;
3995;SDS011;2012;49.794;9.722;2023-11-19T04:20:54;5.20;;;0.60;;
3995;SDS011;2012;49.794;9.722;2023-11-19T04:23:21;0.60;;;0.50;;
3995;SDS011;2012;49.794;9.722;2023-11-19T04:25:48;0.60;;;0.53;;
3995;SDS011;2012;49.794;9.722;2023-11-19T04:28:15;0.80;;;0.60;;
3995;SDS011;2012;49.794;9.722;2023-11-19T04:30:42;1.80;;;0.60;;
3995;SDS011;2012;49.794;9.722;2023-11-19T04:33:09;0.60;;;0.50;;
3995;SDS011;2012;49.794;9.722;2023-11-19T04:35:36;0.80;;;0.60;;
3995;SDS011;2012;49.794;9.722;2023-11-19T04:38:03;0.60;;;0.60;;
3995;SDS011;2012;49.794;9.722;2023-11-19T04:40:29;3.67;;;0.60;;
3995;SDS011;2012;49.794;9.722;2023-11-19T04:42:57;0.60;;;0.60;;
3995;SDS011;2012;49.794;9.722;2023-11-19T04:45:26;2.03;;;0.63;;
3995;SDS011;2012;49.794;9.722;2023-11-19T04:47:53;1.73;;;0.60;;
3995;SDS011;2012;49.794;9.722;2023-11-19T04:50:20;0.70;;;0.60;;
3995;SDS011;2012;49.794;9.722;2023-11-19T04:52:47;0.60;;;0.60;;
3995;SDS011;2012;49.794;9.722;2023-11-19T04:55:14;0.70;;;0.60;;
3995;SDS011;2012;49.794;9.722;2023-11-19T04:57:41;0.80;;;0.70;;
3995;SDS011;2012;49.794;9.722;2023-11-19T05:00:09;1.20;;;1.10;;
3995;SDS011;2012;49.794;9.722;2023-11-19T05:02:40;1.43;;;1.33;;
3995;SDS011;2012;49.794;9.722;2023-11-19T05:05:07;0.80;;;0.80;;
3995;SDS011;2012;49.794;9.722;2023-11-19T05:07:35;1.73;;;1.63;;
3995;SDS011;2012;49.794;9.722;2023-11-19T05:10:02;2.50;;;2.23;;
3995;SDS011;2012;49.794;9.722;2023-11-19T05:12:30;4.20;;;2.60;;
3995;SDS011;2012;49.794;9.722;2023-11-19T05:14:57;12.03;;;8.13;;
3995;SDS011;2012;49.794;9.722;2023-11-19T05:17:24;4.67;;;3.47;;
3995;SDS011;2012;49.794;9.722;2023-11-19T05:19:51;4.10;;;2.80;;
3995;SDS011;2012;49.794;9.722;2023-11-19T05:22:18;14.30;;;6.87;;
3995;SDS011;2012;49.794;9.722;2023-11-19T05:24:47;12.13;;;6.73;;
3995;SDS011;2012;49.794;9.722;2023-11-19T05:27:16;3.30;;;2.37;;
3995;SDS011;2012;49.794;9.722;2023-11-19T05:29:42;2.53;;;1.20;;
3995;SDS011;2012;49.794;9.722;2023-11-19T05:32:10;1.20;;;1.10;;
3995;SDS011;2012;49.794;9.722;2023-11-19T05:34:38;2.50;;;1.17;;
3995;SDS011;2012;49.794;9.722;2023-11-19T05:37:17;1.20;;;0.80;;
3995;SDS011;2012;49.794;9.722;2023-11-19T05:39:45;1.27;;;1.00;;
3995;SDS011;2012;49.794;9.722;2023-11-19T05:42:13;1.27;;;1.13;;
3995;SDS011;2012;49.794;9.722;2023-11-19T05:44:40;0.80;;;0.80;;
3995;SDS011;2012;49.794;9.722;2023-11-19T05:47:07;1.30;;;1.20;;
3995;SDS011;2012;49.794;9.722;2023-11-19T05:49:34;1.03;;;0.93;;
3995;SDS011;2012;49.794;9.722;2023-11-19T05:52:01;0.70;;;0.70;;
3995;SDS011;2012;49.794;9.722;2023-11-19T05:54:30;13.00;;;0.80;;
3995;SDS011;2012;49.794;9.722;2023-11-19T05:56:57;0.60;;;0.60;;
3995;SDS011;2012;49.794;9.722;2023-11-19T05:59:24;0.60;;;0.60;;
3995;SDS011;2012;49.794;9.722;2023-11-19T06:01:52;0.70;;;0.70;;
3995;SDS011;2012;49.794;9.722;2023-11-19T06:04:19;1.47;;;0.70;;
3995;SDS011;2012;49.794;9.722;2023-11-19T06:06:46;1.33;;;0.60;;
3995;SDS011;2012;49.794;9.722;2023-11-19T06:09:13;1.00;;;0.90;;
3995;SDS011;2012;49.794;9.722;2023-11-19T06:11:40;0.70;;;0.70;;
3995;SDS011;2012;49.794;9.722;2023-11-19T06:14:06;1.33;;;0.60;;
3995;SDS011;2012;49.794;9.722;2023-11-19T06:16:33;1.17;;;1.07;;
3995;SDS011;2012;49.794;9.722;2023-11-19T06:19:00;1.20;;;1.10;;
3995;SDS011;2012;49.794;9.722;2023-11-19T06:21:27;1.43;;;1.03;;
3995;SDS011;2012;49.794;9.722;2023-11-19T06:23:54;0.90;;;0.90;;
3995;SDS011;2012;49.794;9.722;2023-11-19T06:26:21;0.80;;;0.80;;
3995;SDS011;2012;49.794;9.722;2023-11-19T06:28:49;1.27;;;1.17;;
3995;SDS011;2012;49.794;9.722;2023-11-19T06:31:15;5.80;;;0.70;;
3995;SDS011;2012;49.794;9.722;2023-11-19T06:33:42;0.80;;;0.80;;
3995;SDS011;2012;49.794;9.722;2023-11-19T06:36:09;0.80;;;0.80;;
3995;SDS011;2012;49.794;9.722;2023-11-19T06:38:36;1.30;;;1.00;;
3995;SDS011;2012;49.794;9.722;2023-11-19T06:41:06;2.13;;;0.90;;
3995;SDS011;2012;49.794;9.722;2023-11-19T06:43:35;1.77;;;0.70;;
3995;SDS011;2012;49.794;9.722;2023-11-19T06:46:13;5.27;;;1.00;;
3995;SDS011;2012;49.794;9.722;2023-11-19T06:48:41;3.80;;;0.97;;
3995;SDS011;2012;49.794;9.722;2023-11-19T06:51:10;4.50;;;1.30;;
3995;SDS011;2012;49.794;9.722;2023-11-19T06:53:37;8.60;;;4.53;;
3995;SDS011;2012;49.794;9.722;2023-11-19T06:56:10;1.10;;;1.00;;
3995;SDS011;2012;49.794;9.722;2023-11-19T06:58:44;1.47;;;1.37;;
3995;SDS011;2012;49.794;9.722;2023-11-19T07:01:11;1.20;;;1.10;;
3995;SDS011;2012;49.794;9.722;2023-11-19T07:03:38;0.90;;;0.90;;
3995;SDS011;2012;49.794;9.722;2023-11-19T07:06:06;3.37;;;2.77;;
3995;SDS011;2012;49.794;9.722;2023-11-19T07:08:33;4.20;;;3.60;;
3995;SDS011;2012;49.794;9.722;2023-11-19T07:11:00;2.60;;;2.33;;
3995;SDS011;2012;49.794;9.722;2023-11-19T07:13:27;2.60;;;2.40;;
3995;SDS011;2012;49.794;9.722;2023-11-19T07:15:55;1.60;;;1.50;;
3995;SDS011;2012;49.794;9.722;2023-11-19T07:18:22;1.33;;;0.90;;
3995;SDS011;2012;49.794;9.722;2023-11-19T07:20:51;1.10;;;0.90;;
3995;SDS011;2012;49.794;9.722;2023-11-19T07:23:18;0.73;;;0.73;;
3995;SDS011;2012;49.794;9.722;2023-11-19T07:25:45;4.10;;;0.80;;
3995;SDS011;2012;49.794;9.722;2023-11-19T07:28:13;1.47;;;0.90;;
3995;SDS011;2012;49.794;9.722;2023-11-19T07:30:40;1.00;;;0.90;;
3995;SDS011;2012;49.794;9.722;2023-11-19T07:33:08;0.90;;;0.90;;
3995;SDS011;2012;49.794;9.722;2023-11-19T07:35:34;3.23;;;0.90;;
3995;SDS011;2012;49.794;9.722;2023-11-19T07:38:01;2.87;;;0.90;;
3995;SDS011;2012;49.794;9.722;2023-11-19T07:40:28;1.90;;;0.80;;
3995;SDS011;2012;49.794;9.722;2023-11-19T07:42:55;0.70;;;0.70;;
3995;SDS011;2012;49.794;9.722;2023-11-19T07:45:22;7.80;;;2.53;;
3995;SDS011;2012;49.794;9.722;2023-11-19T07:47:49;1.37;;;1.27;;
3995;SDS011;2012;49.794;9.722;2023-11-19T07:50:17;4.83;;;2.43;;
3995;SDS011;2012;49.794;9.722;2023-11-19T07:52:46;4.10;;;2.43;;
3995;SDS011;2012;49.794;9.722;2023-11-19T07:55:13;3.27;;;1.17;;
3995;SDS011;2012;49.794;9.722;2023-11-19T07:57:40;3.00;;;0.93;;
3995;SDS011;2012;49.794;9.722;2023-11-19T08:00:07;1.20;;;1.20;;
3995;SDS011;2012;49.794;9.722;2023-11-19T08:02:38;3.13;;;1.80;;
3995;SDS011;2012;49.794;9.722;2023-11-19T08:05:06;5.27;;;1.40;;
3995;SDS011;2012;49.794;9.722;2023-11-19T08:07:33;0.80;;;0.80;;
3995;SDS011;2012;49.794;9.722;2023-11-19T08:10:00;0.90;;;0.90;;
3995;SDS011;2012;49.794;9.722;2023-11-19T08:12:27;1.40;;;1.30;;
3995;SDS011;2012;49.794;9.722;2023-11-19T08:14:53;4.83;;;0.77;;
3995;SDS011;2012;49.794;9.722;2023-11-19T08:17:20;5.43;;;0.90;;
3995;SDS011;2012;49.794;9.722;2023-11-19T08:19:49;1.03;;;0.93;;
3995;SDS011;2012;49.794;9.722;2023-11-19T08:22:17;0.90;;;0.90;;
3995;SDS011;2012;49.794;9.722;2023-11-19T08:24:44;2.30;;;1.20;;
3995;SDS011;2012;49.794;9.722;2023-11-19T08:27:10;2.30;;;1.63;;
3995;SDS011;2012;49.794;9.722;2023-11-19T08:29:37;2.17;;;1.03;;
3995;SDS011;2012;49.794;9.722;2023-11-19T08:32:04;0.90;;;0.90;;
3995;SDS011;2012;49.794;9.722;2023-11-19T08:34:32;1.53;;;1.43;;
3995;SDS011;2012;49.794;9.722;2023-11-19T08:36:59;1.67;;;1.57;;
3995;SDS011;2012;49.794;9.722;2023-11-19T08:39:27;1.00;;;1.00;;
3995;SDS011;2012;49.794;9.722;2023-11-19T08:41:54;1.93;;;1.20;;
3995;SDS011;2012;49.794;9.722;2023-11-19T08:44:22;1.37;;;1.27;;
3995;SDS011;2012;49.794;9.722;2023-11-19T08:46:49;2.27;;;1.00;;
3995;SDS011;2012;49.794;9.722;2023-11-19T08:49:16;7.23;;;1.60;;
3995;SDS011;2012;49.794;9.722;2023-11-19T08:51:43;2.30;;;0.90;;
3995;SDS011;2012;49.794;9.722;2023-11-19T08:54:11;2.53;;;1.20;;
3995;SDS011;2012;49.794;9.722;2023-11-19T08:56:39;0.80;;;0.80;;
3995;SDS011;2012;49.794;9.722;2023-11-19T08:59:06;1.37;;;1.00;;
3995;SDS011;2012;49.794;9.722;2023-11-19T09:01:33;1.33;;;1.10;;
3995;SDS011;2012;49.794;9.722;2023-11-19T09:03:59;3.00;;;1.17;;
3995;SDS011;2012;49.794;9.722;2023-11-19T09:06:27;4.70;;;1.30;;
3995;SDS011;2012;49.794;9.722;2023-11-19T09:08:53;3.77;;;2.80;;
3995;SDS011;2012;49.794;9.722;2023-11-19T09:11:24;3.80;;;1.97;;
3995;SDS011;2012;49.794;9.722;2023-11-19T09:13:52;3.53;;;1.77;;
3995;SDS011;2012;49.794;9.722;2023-11-19T09:16:18;3.87;;;3.33;;
3995;SDS011;2012;49.794;9.722;2023-11-19T09:18:45;5.93;;;4.13;;
3995;SDS011;2012;49.794;9.722;2023-11-19T09:21:12;2.10;;;1.90;;
3995;SDS011;2012;49.794;9.722;2023-11-19T09:23:39;3.53;;;1.10;;
3995;SDS011;2012;49.794;9.722;2023-11-19T09:26:08;4.73;;;1.70;;
3995;SDS011;2012;49.794;9.722;2023-11-19T09:28:36;5.30;;;1.53;;
3995;SDS011;2012;49.794;9.722;2023-11-19T09:31:03;2.80;;;1.40;;
3995;SDS011;2012;49.794;9.722;2023-11-19T09:33:40;19.43;;;3.20;;
3995;SDS011;2012;49.794;9.722;2023-11-19T09:36:07;5.77;;;1.13;;
3995;SDS011;2012;49.794;9.722;2023-11-19T09:38:34;5.90;;;1.60;;
3995;SDS011;2012;49.794;9.722;2023-11-19T09:41:05;1.83;;;1.10;;
3995;SDS011;2012;49.794;9.722;2023-11-19T09:43:36;7.00;;;1.50;;
3995;SDS011;2012;49.794;9.722;2023-11-19T09:46:04;3.90;;;1.30;;
3995;SDS011;2012;49.794;9.722;2023-11-19T09:48:33;8.37;;;1.73;;
3995;SDS011;2012;49.794;9.722;2023-11-19T09:51:01;5.70;;;1.60;;
3995;SDS011;2012;49.794;9.722;2023-11-19T09:53:28;3.80;;;1.30;;
3995;SDS011;2012;49.794;9.722;2023-11-19T09:55:55;2.07;;;1.20;;
3995;SDS011;2012;49.794;9.722;2023-11-19T09:58:23;1.20;;;1.10;;
3995;SDS011;2012;49.794;9.722;2023-11-19T10:00:50;2.00;;;1.00;;
3995;SDS011;2012;49.794;9.722;2023-11-19T10:03:38;3.03;;;1.20;;
3995;SDS011;2012;49.794;9.722;2023-11-19T10:06:07;9.23;;;1.60;;
3995;SDS011;2012;49.794;9.722;2023-11-19T10:08:38;10.73;;;2.00;;
3995;SDS011;2012;49.794;9.722;2023-11-19T10:11:06;5.40;;;1.80;;
3995;SDS011;2012;49.794;9.722;2023-11-19T10:13:37;5.37;;;2.77;;
3995;SDS011;2012;49.794;9.722;2023-11-19T10:16:07;5.03;;;1.10;;
3995;SDS011;2012;49.794;9.722;2023-11-19T10:18:47;2.03;;;1.03;;
3995;SDS011;2012;49.794;9.722;2023-11-19T10:21:19;2.60;;;0.97;;
3995;SDS011;2012;49.794;9.722;2023-11-19T10:23:52;4.50;;;2.23;;
3995;SDS011;2012;49.794;9.722;2023-11-19T10:26:21;5.20;;;1.13;;
3995;SDS011;2012;49.794;9.722;2023-11-19T10:28:48;1.67;;;0.90;;
3995;SDS011;2012;49.794;9.722;2023-11-19T10:31:16;1.90;;;1.00;;
3995;SDS011;2012;49.794;9.722;2023-11-19T10:33:44;1.83;;;0.90;;
3995;SDS011;2012;49.794;9.722;2023-11-19T10:36:11;2.03;;;1.37;;
3995;SDS011;2012;49.794;9.722;2023-11-19T10:38:39;3.33;;;1.13;;
3995;SDS011;2012;49.794;9.722;2023-11-19T10:41:07;4.33;;;2.13;;
3995;SDS011;2012;49.794;9.722;2023-11-19T10:43:43;3.53;;;2.17;;
3995;SDS011;2012;49.794;9.722;2023-11-19T10:46:11;2.50;;;1.70;;
3995;SDS011;2012;49.794;9.722;2023-11-19T10:48:39;4.63;;;1.40;;
3995;SDS011;2012;49.794;9.722;2023-11-19T10:51:07;3.00;;;2.40;;
3995;SDS011;2012;49.794;9.722;2023-11-19T10:53:37;5.53;;;3.77;;
3995;SDS011;2012;49.794;9.722;2023-11-19T10:56:06;3.90;;;2.43;;
3995;SDS011;2012;49.794;9.722;2023-11-19T10:58:37;5.93;;;3.10;;
3995;SDS011;2012;49.794;9.722;2023-11-19T11:01:13;2.20;;;0.90;;
3995;SDS011;2012;49.794;9.722;2023-11-19T11:03:44;3.10;;;2.20;;
3995;SDS011;2012;49.794;9.722;2023-11-19T11:06:13;2.70;;;1.20;;
3995;SDS011;2012;49.794;9.722;2023-11-19T11:08:40;5.13;;;1.63;;
3995;SDS011;2012;49.794;9.722;2023-11-19T11:11:08;3.47;;;2.07;;
3995;SDS011;2012;49.794;9.722;2023-11-19T11:13:38;7.13;;;1.20;;
3995;SDS011;2012;49.794;9.722;2023-11-19T11:16:08;3.13;;;1.57;;
3995;SDS011;2012;49.794;9.722;2023-11-19T11:18:35;3.17;;;1.00;;
3995;SDS011;2012;49.794;9.722;2023-11-19T11:21:04;3.90;;;1.30;;
3995;SDS011;2012;49.794;9.722;2023-11-19T11:29:10;4.60;;;0.90;;
3995;SDS011;2012;49.794;9.722;2023-11-19T11:34:43;1.30;;;1.00;;
3995;SDS011;2012;49.794;9.722;2023-11-19T11:37:36;7.13;;;1.13;;
3995;SDS011;2012;49.794;9.722;2023-11-19T11:40:13;2.40;;;1.20;;
3995;SDS011;2012;49.794;9.722;2023-11-19T11:42:42;3.10;;;1.30;;
3995;SDS011;2012;49.794;9.722;2023-11-19T11:45:10;1.70;;;1.00;;
3995;SDS011;2012;49.794;9.722;2023-11-19T11:50:12;4.83;;;1.10;;
3995;SDS011;2012;49.794;9.722;2023-11-19T11:55:26;3.43;;;2.00;;
3995;SDS011;2012;49.794;9.722;2023-11-19T11:57:57;4.83;;;1.53;;
3995;SDS011;2012;49.794;9.722;2023-11-19T12:02:59;12.97;;;1.50;;
3995;SDS011;2012;49.794;9.722;2023-11-19T12:05:27;9.80;;;2.63;;
3995;SDS011;2012;49.794;9.722;2023-11-19T12:07:55;1.70;;;1.10;;
3995;SDS011;2012;49.794;9.722;2023-11-19T12:10:24;5.03;;;2.60;;
3995;SDS011;2012;49.794;9.722;2023-11-19T12:12:58;5.80;;;2.10;;
3995;SDS011;2012;49.794;9.722;2023-11-19T12:15:26;6.20;;;2.67;;
3995;SDS011;2012;49.794;9.722;2023-11-19T12:17:54;5.83;;;2.90;;
3995;SDS011;2012;49.794;9.722;2023-11-19T12:20:22;3.10;;;1.60;;
3995;SDS011;2012;49.794;9.722;2023-11-19T12:22:53;2.30;;;1.00;;
3995;SDS011;2012;49.794;9.722;2023-11-19T12:25:21;7.17;;;2.03;;
3995;SDS011;2012;49.794;9.722;2023-11-19T12:27:49;4.53;;;1.00;;
3995;SDS011;2012;49.794;9.722;2023-11-19T12:30:24;5.07;;;1.63;;
3995;SDS011;2012;49.794;9.722;2023-11-19T12:32:53;7.33;;;1.33;;
3995;SDS011;2012;49.794;9.722;2023-11-19T12:35:20;6.00;;;1.93;;
3995;SDS011;2012;49.794;9.722;2023-11-19T12:37:48;2.30;;;1.03;;
3995;SDS011;2012;49.794;9.722;2023-11-19T12:40:19;2.50;;;1.00;;
3995;SDS011;2012;49.794;9.722;2023-11-19T12:42:47;2.57;;;1.23;;
3995;SDS011;2012;49.794;9.722;2023-11-19T12:45:14;1.67;;;1.10;;
3995;SDS011;2012;49.794;9.722;2023-11-19T12:47:43;5.53;;;1.47;;
3995;SDS011;2012;49.794;9.722;2023-11-19T12:50:11;4.80;;;1.20;;
3995;SDS011;2012;49.794;9.722;2023-11-19T12:52:38;4.60;;;1.40;;
3995;SDS011;2012;49.794;9.722;2023-11-19T12:55:06;3.30;;;1.13;;
3995;SDS011;2012;49.794;9.722;2023-11-19T12:57:56;6.30;;;1.53;;
3995;SDS011;2012;49.794;9.722;2023-11-19T13:00:25;5.40;;;2.97;;
3995;SDS011;2012;49.794;9.722;2023-11-19T13:02:54;3.10;;;1.37;;
3995;SDS011;2012;49.794;9.722;2023-11-19T13:05:26;5.80;;;2.50;;
3995;SDS011;2012;49.794;9.722;2023-11-19T13:07:59;10.50;;;2.87;;
3995;SDS011;2012;49.794;9.722;2023-11-19T13:10:29;13.30;;;1.70;;
3995;SDS011;2012;49.794;9.722;2023-11-19T13:13:06;4.13;;;1.47;;
3995;SDS011;2012;49.794;9.722;2023-11-19T13:15:37;5.83;;;3.13;;
3995;SDS011;2012;49.794;9.722;2023-11-19T13:18:04;4.60;;;1.37;;
3995;SDS011;2012;49.794;9.722;2023-11-19T13:20:33;12.40;;;5.60;;
3995;SDS011;2012;49.794;9.722;2023-11-19T13:23:01;5.03;;;2.73;;
3995;SDS011;2012;49.794;9.722;2023-11-19T13:25:29;10.87;;;4.50;;
3995;SDS011;2012;49.794;9.722;2023-11-19T13:27:57;11.40;;;5.93;;
3995;SDS011;2012;49.794;9.722;2023-11-19T13:30:25;6.60;;;2.40;;
3995;SDS011;2012;49.794;9.722;2023-11-19T13:32:53;9.10;;;2.50;;
3995;SDS011;2012;49.794;9.722;2023-11-19T13:35:22;4.73;;;1.43;;
3995;SDS011;2012;49.794;9.722;2023-11-19T13:37:49;7.03;;;1.00;;
3995;SDS011;2012;49.794;9.722;2023-11-19T13:40:16;6.00;;;1.70;;
3995;SDS011;2012;49.794;9.722;2023-11-19T13:42:43;7.40;;;1.97;;
3995;SDS011;2012;49.794;9.722;2023-11-19T13:45:11;5.80;;;2.47;;
3995;SDS011;2012;49.794;9.722;2023-11-19T13:47:40;4.27;;;1.40;;
3995;SDS011;2012;49.794;9.722;2023-11-19T13:50:09;5.00;;;1.70;;
3995;SDS011;2012;49.794;9.722;2023-11-19T13:52:37;5.80;;;1.57;;
3995;SDS011;2012;49.794;9.722;2023-11-19T13:55:06;6.03;;;1.97;;
3995;SDS011;2012;49.794;9.722;2023-11-19T13:57:35;6.00;;;1.60;;
3995;SDS011;2012;49.794;9.722;2023-11-19T14:00:03;5.27;;;2.00;;
3995;SDS011;2012;49.794;9.722;2023-11-19T14:02:39;6.10;;;1.53;;
3995;SDS011;2012;49.794;9.722;2023-11-19T14:05:07;9.00;;;1.97;;
3995;SDS011;2012;49.794;9.722;2023-11-19T14:07:34;2.40;;;1.17;;
3995;SDS011;2012;49.794;9.722;2023-11-19T14:10:01;4.40;;;1.20;;
3995;SDS011;2012;49.794;9.722;2023-11-19T14:12:29;3.13;;;1.10;;
3995;SDS011;2012;49.794;9.722;2023-11-19T14:14:56;4.47;;;1.30;;
3995;SDS011;2012;49.794;9.722;2023-11-19T14:17:23;4.40;;;1.40;;
3995;SDS011;2012;49.794;9.722;2023-11-19T14:19:51;3.80;;;1.20;;
3995;SDS011;2012;49.794;9.722;2023-11-19T14:22:18;4.00;;;1.40;;
3995;SDS011;2012;49.794;9.722;2023-11-19T14:24:45;12.30;;;2.67;;
3995;SDS011;2012;49.794;9.722;2023-11-19T14:27:12;4.90;;;1.23;;
3995;SDS011;2012;49.794;9.722;2023-11-19T14:29:38;6.80;;;1.97;;
3995;SDS011;2012;49.794;9.722;2023-11-19T14:32:06;7.80;;;1.63;;
3995;SDS011;2012;49.794;9.722;2023-11-19T14:34:33;4.03;;;1.27;;
3995;SDS011;2012;49.794;9.722;2023-11-19T14:37:00;7.60;;;2.83;;
3995;SDS011;2012;49.794;9.722;2023-11-19T14:39:27;6.73;;;2.23;;
3995;SDS011;2012;49.794;9.722;2023-11-19T14:41:57;4.87;;;2.07;;
3995;SDS011;2012;49.794;9.722;2023-11-19T14:44:27;8.40;;;1.60;;
3995;SDS011;2012;49.794;9.722;2023-11-19T14:46:55;7.37;;;2.20;;
3995;SDS011;2012;49.794;9.722;2023-11-19T14:49:22;6.10;;;1.80;;
3995;SDS011;2012;49.794;9.722;2023-11-19T14:51:50;3.77;;;1.80;;
3995;SDS011;2012;49.794;9.722;2023-11-19T14:54:17;5.87;;;1.60;;
3995;SDS011;2012;49.794;9.722;2023-11-19T14:56:44;5.63;;;2.60;;
3995;SDS011;2012;49.794;9.722;2023-11-19T14:59:11;13.13;;;5.53;;
3995;SDS011;2012;49.794;9.722;2023-11-19T15:01:38;4.33;;;1.47;;
3995;SDS011;2012;49.794;9.722;2023-11-19T15:04:06;5.57;;;1.43;;
3995;SDS011;2012;49.794;9.722;2023-11-19T15:06:33;4.90;;;1.07;;
3995;SDS011;2012;49.794;9.722;2023-11-19T15:09:00;5.37;;;1.67;;
3995;SDS011;2012;49.794;9.722;2023-11-19T15:11:28;5.83;;;2.10;;
3995;SDS011;2012;49.794;9.722;2023-11-19T15:13:55;9.13;;;2.10;;
3995;SDS011;2012;49.794;9.722;2023-11-19T15:16:22;7.20;;;1.93;;
3995;SDS011;2012;49.794;9.722;2023-11-19T15:18:57;2.97;;;1.23;;
3995;SDS011;2012;49.794;9.722;2023-11-19T15:21:30;8.90;;;2.30;;
3995;SDS011;2012;49.794;9.722;2023-11-19T15:23:58;5.03;;;1.63;;
3995;SDS011;2012;49.794;9.722;2023-11-19T15:26:25;8.00;;;2.40;;
3995;SDS011;2012;49.794;9.722;2023-11-19T15:28:52;9.27;;;2.50;;
3995;SDS011;2012;49.794;9.722;2023-11-19T15:31:22;13.27;;;2.47;;
3995;SDS011;2012;49.794;9.722;2023-11-19T15:33:49;8.13;;;2.77;;
3995;SDS011;2012;49.794;9.722;2023-11-19T15:36:17;5.93;;;1.73;;
3995;SDS011;2012;49.794;9.722;2023-11-19T15:38:45;9.10;;;2.00;;